createdAt,value
2022-09-13T00:03:01.669Z,93.20
2022-09-13T00:06:11.278Z,93.22
2022-09-13T00:09:13.166Z,93.51
2022-09-13T00:12:15.633Z,93.10
2022-09-13T00:15:17.332Z,93.55
2022-09-13T00:18:19.441Z,92.95
2022-09-13T00:21:23.359Z,91.98
2022-09-13T00:24:25.084Z,91.28
2022-09-13T00:27:26.824Z,91.37
2022-09-13T00:30:28.900Z,92.60
2022-09-13T00:33:31.126Z,93.74
2022-09-13T00:36:33.132Z,94.60
2022-09-13T00:39:35.740Z,95.35
2022-09-13T00:42:38.150Z,95.41
2022-09-13T00:45:40.467Z,95.46
2022-09-13T00:48:43.236Z,94.62
2022-09-13T00:51:49.472Z,94.95
2022-09-13T00:54:57.162Z,95.67
2022-09-13T00:58:04.834Z,93.63
2022-09-13T01:01:09.765Z,93.28
2022-09-13T01:04:12.813Z,92.25
2022-09-13T01:07:16.883Z,93.28
2022-09-13T01:10:18.679Z,94.15
2022-09-13T01:13:25.433Z,93.91
2022-09-13T01:16:27.625Z,94.24
2022-09-13T01:19:29.341Z,94.59
2022-09-13T01:22:33.967Z,94.51
2022-09-13T01:26:12.453Z,94.31
2022-09-13T01:29:45.469Z,94.50
2022-09-13T01:32:56.473Z,93.69
2022-09-13T01:36:40.146Z,93.77
2022-09-13T01:39:49.597Z,92.69
2022-09-13T01:42:54.330Z,91.86
2022-09-13T01:46:07.321Z,92.89
2022-09-13T01:49:19.555Z,93.84
2022-09-13T01:52:32.467Z,94.52
2022-09-13T01:55:42.279Z,92.76
2022-09-13T01:58:48.990Z,91.07
2022-09-13T02:02:05.380Z,90.72
2022-09-13T02:05:23.135Z,90.82
2022-09-13T02:08:47.481Z,92.83
2022-09-13T02:11:52.661Z,92.43
2022-09-13T02:15:07.118Z,94.38
2022-09-13T02:18:11.327Z,94.60
2022-09-13T02:21:20.684Z,95.24
2022-09-13T02:24:30.184Z,96.48
2022-09-13T02:27:33.807Z,96.17
2022-09-13T02:30:40.720Z,96.91
2022-09-13T02:33:45.551Z,95.34
2022-09-13T02:36:51.047Z,93.17
2022-09-13T02:39:59.561Z,92.20
2022-09-13T02:43:06.214Z,91.59
2022-09-13T02:46:46.262Z,90.54
2022-09-13T02:50:30.306Z,90.98
2022-09-13T02:53:50.981Z,89.51
2022-09-13T02:56:58.853Z,89.58
2022-09-13T03:00:00.660Z,91.83
2022-09-13T03:03:08.220Z,94.91
2022-09-13T03:06:10.078Z,96.66
2022-09-13T03:09:12.281Z,93.40
2022-09-13T03:12:38.582Z,92.10
2022-09-13T03:16:25.437Z,91.81
2022-09-13T03:19:39.696Z,89.53
2022-09-13T03:23:16.044Z,91.40
2022-09-13T03:26:32.749Z,90.53
2022-09-13T03:29:42.539Z,88.34
2022-09-13T03:33:03.629Z,89.30
2022-09-13T03:36:12.896Z,89.99
2022-09-13T03:39:17.612Z,89.32
2022-09-13T03:42:25.282Z,88.76
2022-09-13T03:45:30.285Z,90.60
2022-09-13T03:48:37.170Z,92.39
2022-09-13T03:51:39.313Z,94.66
2022-09-13T03:54:41.109Z,95.82
2022-09-13T03:57:42.987Z,97.22
2022-09-13T04:00:45.398Z,97.87
2022-09-13T04:03:47.425Z,96.79
2022-09-13T04:06:49.746Z,93.47
2022-09-13T04:09:52.018Z,93.62
2022-09-13T04:12:57.221Z,92.50
2022-09-13T04:16:03.320Z,95.95
2022-09-13T04:19:05.160Z,95.76
2022-09-13T04:22:07.222Z,94.73
2022-09-13T04:25:09.684Z,97.07
2022-09-13T04:28:12.271Z,97.50
2022-09-13T04:31:14.365Z,95.81
2022-09-13T04:34:18.735Z,93.75
2022-09-13T04:37:21.231Z,92.37
2022-09-13T04:40:23.912Z,92.60
2022-09-13T04:43:25.906Z,95.03
2022-09-13T04:46:30.946Z,96.12
2022-09-13T04:49:33.960Z,97.64
2022-09-13T04:52:36.255Z,98.98
2022-09-13T04:55:38.332Z,97.08
2022-09-13T04:58:40.573Z,96.24
2022-09-13T05:01:42.812Z,94.64
2022-09-13T05:04:44.668Z,94.62
2022-09-13T05:07:50.586Z,94.18
2022-09-13T05:10:53.053Z,94.35
2022-09-13T05:13:57.340Z,92.85
2022-09-13T05:16:59.196Z,90.95
2022-09-13T05:20:00.879Z,90.43
2022-09-13T05:23:02.635Z,91.99
2022-09-13T05:26:05.867Z,91.69
2022-09-13T05:29:07.905Z,91.33
2022-09-13T05:32:09.722Z,91.58
2022-09-13T05:35:11.702Z,92.48
2022-09-13T05:38:13.446Z,90.69
2022-09-13T05:41:15.237Z,90.41
2022-09-13T05:44:17.215Z,90.04
2022-09-13T05:47:19.116Z,89.82
2022-09-13T05:50:45.154Z,87.21
2022-09-13T05:53:45.306Z,89.25
2022-09-13T05:56:47.075Z,87.41
2022-09-13T05:59:49.182Z,88.27
2022-09-13T06:02:51.042Z,86.30
2022-09-13T06:05:57.368Z,85.32
2022-09-13T06:08:59.184Z,84.45
2022-09-13T06:12:01.381Z,83.74
2022-09-13T06:15:04.121Z,83.44
2022-09-13T06:18:06.353Z,82.45
2022-09-13T06:21:11.503Z,80.74
2022-09-13T06:24:15.037Z,82.79
2022-09-13T06:27:17.100Z,82.42
2022-09-13T06:30:19.751Z,82.99
2022-09-13T06:33:22.452Z,82.72
2022-09-13T06:36:25.736Z,81.96
2022-09-13T06:39:27.886Z,81.49
2022-09-13T06:42:30.819Z,81.35
2022-09-13T06:45:33.585Z,80.97
2022-09-13T06:48:38.248Z,78.53
2022-09-13T06:51:41.296Z,77.45
2022-09-13T06:54:45.293Z,76.99
2022-09-13T06:57:47.841Z,75.78
2022-09-13T07:00:54.176Z,75.15
2022-09-13T07:04:02.059Z,74.87
2022-09-13T07:07:04.953Z,75.68
2022-09-13T07:10:07.423Z,74.04
2022-09-13T07:13:10.416Z,73.20
2022-09-13T07:16:12.781Z,74.34
2022-09-13T07:19:18.280Z,73.94
2022-09-13T07:22:20.620Z,73.38
2022-09-13T07:25:23.969Z,73.73
2022-09-13T07:28:27.536Z,72.26
2022-09-13T07:31:37.659Z,72.21
2022-09-13T07:34:41.056Z,71.65
2022-09-13T07:37:45.436Z,71.21
2022-09-13T07:40:58.321Z,70.35
2022-09-13T07:44:02.541Z,70.30
2022-09-13T07:47:05.858Z,69.45
2022-09-13T07:50:07.993Z,70.75
2022-09-13T07:53:10.089Z,69.04
2022-09-13T07:56:14.194Z,67.51
2022-09-13T07:59:17.010Z,68.29
2022-09-13T08:02:18.879Z,69.75
2022-09-13T08:05:20.729Z,71.55
2022-09-13T08:08:22.751Z,71.83
2022-09-13T08:11:27.791Z,72.86
2022-09-13T08:14:29.745Z,71.54
2022-09-13T08:17:31.670Z,72.15
2022-09-13T08:20:37.569Z,71.43
2022-09-13T08:23:39.534Z,70.14
2022-09-13T08:26:41.632Z,69.08
2022-09-13T08:29:43.524Z,68.56
2022-09-13T08:32:45.372Z,67.65
2022-09-13T08:35:52.809Z,65.78
2022-09-13T08:39:00.325Z,64.59
2022-09-13T08:42:35.412Z,63.87
2022-09-13T08:45:37.254Z,64.67
2022-09-13T08:48:42.262Z,63.48
2022-09-13T08:51:53.259Z,57.92
2022-09-13T08:54:58.355Z,62.24
2022-09-13T08:58:10.045Z,60.48
2022-09-13T09:01:19.694Z,60.91
2022-09-13T09:04:27.953Z,60.80
2022-09-13T09:07:41.620Z,58.49
2022-09-13T09:10:48.060Z,58.22
2022-09-13T09:14:00.867Z,57.11
2022-09-13T09:17:07.265Z,59.02
2022-09-13T09:20:32.548Z,57.03
2022-09-13T09:23:34.352Z,59.90
2022-09-13T09:26:36.210Z,58.50
2022-09-13T09:29:40.292Z,60.32
2022-09-13T09:32:57.647Z,57.20
2022-09-13T09:36:09.014Z,57.52
2022-09-13T09:39:14.383Z,58.89
2022-09-13T09:42:19.703Z,56.76
2022-09-13T09:45:25.297Z,57.03
2022-09-13T09:48:30.894Z,56.22
2022-09-13T09:51:33.714Z,57.39
2022-09-13T09:54:37.330Z,57.54
2022-09-13T09:57:55.805Z,53.33
2022-09-13T10:00:59.086Z,56.98
2022-09-13T10:04:17.336Z,53.06
2022-09-13T10:07:22.982Z,57.37
2022-09-13T10:10:37.645Z,55.93
2022-09-13T10:13:39.448Z,57.85
2022-09-13T10:16:41.541Z,57.86
2022-09-13T10:20:02.107Z,56.93
2022-09-13T10:23:16.173Z,56.96
2022-09-13T10:26:20.173Z,58.11
2022-09-13T10:29:22.503Z,58.79
2022-09-13T10:32:25.018Z,59.64
2022-09-13T10:35:27.759Z,59.26
2022-09-13T10:38:36.034Z,57.72
2022-09-13T10:41:42.115Z,57.28
2022-09-13T10:44:46.071Z,57.36
2022-09-13T10:47:50.545Z,58.16
2022-09-13T10:51:27.953Z,55.12
2022-09-13T10:54:30.088Z,55.68
2022-09-13T10:57:34.792Z,54.78
2022-09-13T11:00:46.438Z,55.32
2022-09-13T11:04:13.775Z,54.20
2022-09-13T11:07:19.162Z,53.56
2022-09-13T11:10:21.307Z,53.71
2022-09-13T11:13:34.316Z,51.65
2022-09-13T11:16:39.836Z,53.93
2022-09-13T11:20:07.182Z,51.32
2022-09-13T11:23:15.346Z,56.29
2022-09-13T11:26:23.390Z,55.47
2022-09-13T11:29:57.432Z,51.89
2022-09-13T11:33:18.330Z,52.60
2022-09-13T11:36:51.343Z,51.81
2022-09-13T11:40:09.609Z,50.73
2022-09-13T11:43:44.035Z,51.79
2022-09-13T11:47:19.982Z,49.39
2022-09-13T11:50:50.082Z,49.11
2022-09-13T11:54:13.651Z,50.51
2022-09-13T11:57:19.921Z,52.32
2022-09-13T12:00:26.692Z,50.21
2022-09-13T12:03:35.226Z,51.66
2022-09-13T12:06:48.526Z,49.07
2022-09-13T12:10:04.681Z,46.02
2022-09-13T12:13:10.971Z,48.15
2022-09-13T12:16:18.960Z,48.81
2022-09-13T12:19:25.339Z,47.93
2022-09-13T12:22:30.968Z,50.27
2022-09-13T12:25:39.681Z,49.81
2022-09-13T12:28:46.104Z,51.04
2022-09-13T12:31:48.104Z,50.53
2022-09-13T12:34:58.879Z,48.39
2022-09-13T12:38:31.453Z,46.42
2022-09-13T12:41:55.653Z,47.75
2022-09-13T12:45:19.133Z,45.18
2022-09-13T12:48:28.966Z,46.65
2022-09-13T12:51:34.111Z,46.40
2022-09-13T12:55:42.376Z,42.73
2022-09-13T12:58:43.925Z,41.04
2022-09-13T13:01:50.407Z,46.07
2022-09-13T13:04:54.621Z,41.71
2022-09-13T13:08:00.065Z,46.09
2022-09-13T13:11:05.734Z,44.55
2022-09-13T13:14:46.047Z,44.30
2022-09-13T13:17:50.286Z,46.37
2022-09-13T13:20:55.164Z,42.85
2022-09-13T13:24:24.251Z,42.06
2022-09-13T13:27:38.142Z,44.61
2022-09-13T13:30:43.343Z,44.62
2022-09-13T13:33:52.733Z,45.77
2022-09-13T13:37:14.911Z,46.18
2022-09-13T13:40:26.166Z,42.90
2022-09-13T13:43:27.970Z,47.48
2022-09-13T13:46:32.335Z,48.38
2022-09-13T13:49:38.895Z,47.50
2022-09-13T13:52:46.983Z,44.37
2022-09-13T13:55:50.033Z,46.47
2022-09-13T13:59:09.457Z,44.63
2022-09-13T14:02:13.394Z,46.52
2022-09-13T14:05:40.189Z,47.31
2022-09-13T14:08:54.007Z,47.48
2022-09-13T14:11:58.962Z,48.02
2022-09-13T14:15:25.787Z,48.08
2022-09-13T14:18:41.167Z,48.87
2022-09-13T14:21:43.085Z,48.64
2022-09-13T14:24:49.153Z,48.83
2022-09-13T14:27:57.042Z,47.47
2022-09-13T14:30:59.717Z,49.11
2022-09-13T14:34:02.338Z,49.10
2022-09-13T14:37:07.228Z,49.49
2022-09-13T14:40:09.694Z,48.51
2022-09-13T14:43:20.130Z,48.84
2022-09-13T14:46:24.957Z,49.63
2022-09-13T14:49:31.717Z,49.32
2022-09-13T14:52:37.268Z,47.61
2022-09-13T14:56:00.359Z,48.43
2022-09-13T14:59:05.458Z,49.96
2022-09-13T15:02:21.091Z,48.92
2022-09-13T15:05:25.809Z,50.42
2022-09-13T15:08:33.854Z,49.96
2022-09-13T15:11:38.219Z,50.93
2022-09-13T15:14:40.110Z,50.86
2022-09-13T15:18:03.745Z,48.89
2022-09-13T15:21:06.612Z,50.57
2022-09-13T15:24:45.719Z,49.07
2022-09-13T15:27:48.980Z,50.57
2022-09-13T15:30:51.805Z,50.80
2022-09-13T15:34:18.205Z,51.31
2022-09-13T15:37:36.952Z,51.02
2022-09-13T15:40:43.990Z,51.90
2022-09-13T15:43:48.630Z,51.25
2022-09-13T15:46:52.904Z,52.65
2022-09-13T15:49:54.962Z,52.92
2022-09-13T15:52:57.947Z,54.03
2022-09-13T15:56:01.705Z,53.91
2022-09-13T15:59:03.679Z,54.15
2022-09-13T16:02:32.216Z,54.46
2022-09-13T16:05:34.208Z,55.74
2022-09-13T16:08:37.397Z,56.24
2022-09-13T16:11:39.335Z,57.42
2022-09-13T16:14:41.874Z,57.64
2022-09-13T16:17:43.939Z,57.05
2022-09-13T16:20:46.259Z,57.24
2022-09-13T16:23:48.597Z,57.54
2022-09-13T16:26:50.835Z,58.23
2022-09-13T16:29:53.731Z,58.82
2022-09-13T16:32:55.670Z,58.79
2022-09-13T16:36:02.129Z,59.71
2022-09-13T16:39:04.923Z,60.16
2022-09-13T16:42:07.188Z,60.04
2022-09-13T16:45:10.740Z,60.62
2022-09-13T16:48:14.123Z,60.57
2022-09-13T16:51:16.769Z,60.62
2022-09-13T16:54:18.658Z,61.63
2022-09-13T16:57:20.804Z,61.77
2022-09-13T17:00:25.175Z,62.35
2022-09-13T17:03:27.642Z,62.22
2022-09-13T17:06:32.482Z,62.40
2022-09-13T17:09:34.944Z,62.82
2022-09-13T17:12:37.305Z,62.13
2022-09-13T17:15:40.289Z,62.82
2022-09-13T17:18:42.756Z,63.43
2022-09-13T17:21:45.604Z,63.67
2022-09-13T17:24:48.626Z,63.68
2022-09-13T17:27:50.621Z,64.08
2022-09-13T17:30:53.400Z,64.59
2022-09-13T17:33:55.969Z,65.05
2022-09-13T17:36:58.362Z,65.56
2022-09-13T17:40:00.440Z,65.66
2022-09-13T17:43:02.936Z,66.37
2022-09-13T17:46:10.668Z,65.61
2022-09-13T17:49:13.119Z,64.79
2022-09-13T17:52:15.264Z,64.81
2022-09-13T17:55:18.353Z,64.43
2022-09-13T17:58:20.836Z,64.61
2022-09-13T18:01:23.639Z,65.22
2022-09-13T18:04:25.997Z,65.81
2022-09-13T18:07:28.288Z,66.16
2022-09-13T18:10:53.602Z,66.13
2022-09-13T18:13:53.956Z,66.12
2022-09-13T18:16:59.025Z,66.86
2022-09-13T18:20:07.576Z,66.70
2022-09-13T18:23:09.641Z,66.90
2022-09-13T18:26:13.964Z,67.44
2022-09-13T18:29:18.185Z,67.40
2022-09-13T18:32:20.237Z,67.63
2022-09-13T18:35:22.374Z,67.47
2022-09-13T18:38:24.697Z,67.33
2022-09-13T18:41:30.157Z,67.61
2022-09-13T18:44:34.205Z,66.95
2022-09-13T18:47:37.053Z,67.40
2022-09-13T18:50:42.420Z,67.86
2022-09-13T18:53:45.527Z,68.14
2022-09-13T18:56:48.334Z,67.37
2022-09-13T18:59:50.678Z,67.24
2022-09-13T19:03:11.256Z,67.52
2022-09-13T19:06:20.283Z,67.91
2022-09-13T19:09:23.753Z,68.30
2022-09-13T19:12:26.453Z,68.60
2022-09-13T19:15:28.827Z,68.03
2022-09-13T19:18:32.047Z,68.66
2022-09-13T19:21:34.503Z,68.42
2022-09-13T19:24:38.203Z,68.15
2022-09-13T19:27:40.264Z,68.89
2022-09-13T19:30:42.457Z,69.36
2022-09-13T19:33:45.330Z,69.57
2022-09-13T19:36:49.963Z,69.58
2022-09-13T19:39:52.363Z,69.65
2022-09-13T19:42:54.884Z,69.41
2022-09-13T19:46:05.991Z,69.41
2022-09-13T19:49:10.992Z,69.01
2022-09-13T19:52:15.963Z,70.50
2022-09-13T19:55:18.375Z,70.21
2022-09-13T19:58:21.200Z,70.12
2022-09-13T20:01:25.877Z,70.02
2022-09-13T20:04:30.355Z,70.47
2022-09-13T20:07:32.716Z,70.11
2022-09-13T20:10:38.158Z,69.93
2022-09-13T20:13:40.370Z,70.00
2022-09-13T20:16:46.069Z,70.26
2022-09-13T20:19:50.305Z,69.94
2022-09-13T20:22:52.854Z,70.46
2022-09-13T20:25:55.561Z,70.07
2022-09-13T20:29:03.744Z,70.77
2022-09-13T20:32:06.389Z,70.92
2022-09-13T20:35:09.937Z,71.11
2022-09-13T20:38:12.564Z,71.07
2022-09-13T20:41:16.800Z,71.33
2022-09-13T20:44:20.074Z,71.16
2022-09-13T20:47:24.876Z,71.59
2022-09-13T20:50:29.334Z,72.40
2022-09-13T20:53:33.607Z,72.43
2022-09-13T20:56:36.763Z,72.06
2022-09-13T20:59:39.097Z,72.26
2022-09-13T21:02:43.594Z,71.68
2022-09-13T21:05:45.882Z,71.65
2022-09-13T21:08:50.563Z,72.07
2022-09-13T21:11:52.667Z,72.45
2022-09-13T21:14:54.805Z,72.26
2022-09-13T21:17:58.133Z,72.41
2022-09-13T21:21:01.859Z,71.93
2022-09-13T21:24:06.419Z,72.22
2022-09-13T21:27:11.976Z,72.14
2022-09-13T21:30:16.925Z,72.03
2022-09-13T21:33:18.914Z,72.80
2022-09-13T21:36:23.804Z,72.53
2022-09-13T21:39:25.831Z,72.50
2022-09-13T21:42:28.417Z,72.34
2022-09-13T21:45:31.574Z,72.51
2022-09-13T21:48:35.408Z,72.71
2022-09-13T21:51:43.494Z,73.00
2022-09-13T21:54:45.607Z,73.19
2022-09-13T21:57:47.438Z,73.10
2022-09-13T22:00:50.698Z,73.30
2022-09-13T22:03:53.481Z,72.72
2022-09-13T22:06:55.975Z,73.42
2022-09-13T22:09:57.916Z,72.83
2022-09-13T22:12:59.881Z,72.94
2022-09-13T22:16:09.223Z,73.28
2022-09-13T22:19:26.322Z,73.51
2022-09-13T22:22:31.438Z,73.26
2022-09-13T22:25:34.712Z,73.13
2022-09-13T22:28:36.927Z,73.40
2022-09-13T22:31:40.800Z,73.47
2022-09-13T22:34:43.464Z,73.17
2022-09-13T22:37:46.348Z,73.59
2022-09-13T22:40:56.298Z,74.23
2022-09-13T22:43:59.802Z,73.64
2022-09-13T22:47:02.871Z,73.44
2022-09-13T22:50:10.109Z,73.88
2022-09-13T22:53:15.683Z,74.11
2022-09-13T22:56:29.869Z,74.66
2022-09-13T22:59:31.973Z,73.90
2022-09-13T23:02:34.085Z,73.70
2022-09-13T23:05:36.448Z,73.70
2022-09-13T23:08:39.854Z,74.18
2022-09-13T23:11:42.348Z,74.21
2022-09-13T23:14:44.619Z,74.46
2022-09-13T23:17:48.079Z,74.98
2022-09-13T23:20:56.137Z,75.66
2022-09-13T23:24:01.704Z,75.58
2022-09-13T23:27:03.787Z,75.63
2022-09-13T23:30:05.980Z,75.73
2022-09-13T23:33:12.124Z,75.89
2022-09-13T23:36:16.480Z,75.24
2022-09-13T23:39:20.249Z,75.09
2022-09-13T23:42:22.229Z,75.91
2022-09-13T23:45:25.374Z,75.58
2022-09-13T23:48:27.216Z,75.91
2022-09-13T23:51:29.270Z,75.42
2022-09-13T23:54:31.211Z,75.63
2022-09-13T23:57:33.319Z,75.51
